createdAt,value
2018-11-23T00:00:20.714Z,5.00
2018-11-23T00:02:50.040Z,5.00
2018-11-23T00:05:18.813Z,5.00
2018-11-23T00:07:47.790Z,5.00
2018-11-23T00:10:17.548Z,5.00
2018-11-23T00:12:46.620Z,5.00
2018-11-23T00:15:16.677Z,5.00
2018-11-23T00:17:45.243Z,5.10
2018-11-23T00:20:15.191Z,5.10
2018-11-23T00:22:43.795Z,5.10
2018-11-23T00:25:14.188Z,5.10
2018-11-23T00:27:42.776Z,5.10
2018-11-23T00:30:15.025Z,5.10
2018-11-23T00:32:43.872Z,5.00
2018-11-23T00:35:14.395Z,5.00
2018-11-23T00:37:43.220Z,5.00
2018-11-23T00:40:14.257Z,5.00
2018-11-23T00:42:43.369Z,5.00
2018-11-23T00:45:13.343Z,4.90
2018-11-23T00:47:42.749Z,4.90
2018-11-23T00:50:12.989Z,4.90
2018-11-23T00:52:42.316Z,4.80
2018-11-23T00:55:12.395Z,4.70
2018-11-23T00:57:41.152Z,4.60
2018-11-23T01:00:14.371Z,4.50
2018-11-23T01:02:43.265Z,4.40
2018-11-23T01:05:13.959Z,4.30
2018-11-23T01:07:43.277Z,4.30
2018-11-23T01:10:13.337Z,4.40
2018-11-23T01:12:42.543Z,4.50
2018-11-23T01:15:11.766Z,4.40
2018-11-23T01:17:40.326Z,4.40
2018-11-23T01:20:12.476Z,4.30
2018-11-23T01:22:41.454Z,4.30
2018-11-23T01:25:11.665Z,4.30
2018-11-23T01:27:41.007Z,4.30
2018-11-23T01:30:18.794Z,4.40
2018-11-23T01:32:47.491Z,4.30
2018-11-23T01:35:16.119Z,4.20
2018-11-23T01:37:44.644Z,4.20
2018-11-23T01:40:19.751Z,4.10
2018-11-23T01:42:48.433Z,4.10
2018-11-23T01:45:17.343Z,4.00
2018-11-23T01:47:45.945Z,4.00
2018-11-23T01:50:16.856Z,3.90
2018-11-23T01:52:46.613Z,3.90
2018-11-23T01:55:15.875Z,4.00
2018-11-23T01:57:44.829Z,4.00
2018-11-23T02:00:15.580Z,4.10
2018-11-23T02:02:44.640Z,4.10
2018-11-23T02:05:13.189Z,4.10
2018-11-23T02:07:41.746Z,4.10
2018-11-23T02:10:11.768Z,4.00
2018-11-23T02:12:40.356Z,4.00
2018-11-23T02:15:14.798Z,4.10
2018-11-23T02:17:43.470Z,4.10
2018-11-23T02:20:13.369Z,4.10
2018-11-23T02:22:42.003Z,4.10
2018-11-23T02:25:10.545Z,4.10
2018-11-23T02:27:39.204Z,4.00
2018-11-23T02:30:11.757Z,4.00
2018-11-23T02:32:40.596Z,4.00
2018-11-23T02:35:09.145Z,3.90
2018-11-23T02:37:37.751Z,3.80
2018-11-23T02:40:07.022Z,3.80
2018-11-23T02:42:35.715Z,3.90
2018-11-23T02:45:04.286Z,3.90
2018-11-23T02:47:32.779Z,3.90
2018-11-23T02:50:01.374Z,3.80
2018-11-23T02:52:29.957Z,3.70
2018-11-23T02:54:58.476Z,3.60
2018-11-23T02:57:27.091Z,3.60
2018-11-23T02:59:55.571Z,3.60
2018-11-23T03:02:24.065Z,3.70
2018-11-23T03:04:52.646Z,3.70
2018-11-23T03:07:21.152Z,3.80
2018-11-23T03:09:49.798Z,3.80
2018-11-23T03:12:18.295Z,3.80
2018-11-23T03:14:46.853Z,3.80
2018-11-23T03:17:15.590Z,3.80
2018-11-23T03:19:44.174Z,3.80
2018-11-23T03:22:12.638Z,3.80
2018-11-23T03:24:41.206Z,3.80
2018-11-23T03:27:09.770Z,3.90
2018-11-23T03:29:38.341Z,3.90
2018-11-23T03:32:06.975Z,3.80
2018-11-23T03:34:35.638Z,3.80
2018-11-23T03:37:04.204Z,3.80
2018-11-23T03:39:34.184Z,3.80
2018-11-23T03:42:01.483Z,3.80
2018-11-23T03:44:29.965Z,3.80
2018-11-23T03:46:58.526Z,3.90
2018-11-23T03:49:27.025Z,3.90
2018-11-23T03:51:55.615Z,3.90
2018-11-23T03:54:24.092Z,3.90
2018-11-23T03:56:52.589Z,3.90
2018-11-23T03:59:21.072Z,3.90
2018-11-23T04:01:49.715Z,3.90
2018-11-23T04:04:18.264Z,4.00
2018-11-23T04:06:46.816Z,3.90
2018-11-23T04:09:15.334Z,3.90
2018-11-23T04:11:43.867Z,4.00
2018-11-23T04:14:12.510Z,4.00
2018-11-23T04:16:40.997Z,4.00
2018-11-23T04:19:09.534Z,4.10
2018-11-23T04:21:38.021Z,4.10
2018-11-23T04:24:06.560Z,4.20
2018-11-23T04:26:35.053Z,4.10
2018-11-23T04:29:03.754Z,4.20
2018-11-23T04:31:32.246Z,4.20
2018-11-23T04:34:00.968Z,4.30
2018-11-23T04:36:29.346Z,4.30
2018-11-23T04:38:58.897Z,4.30
2018-11-23T04:41:27.982Z,4.30
2018-11-23T04:43:56.962Z,4.30
2018-11-23T04:46:25.489Z,4.30
2018-11-23T04:48:54.021Z,4.30
2018-11-23T04:51:22.516Z,4.30
2018-11-23T04:53:51.136Z,4.30
2018-11-23T04:56:19.661Z,4.30
2018-11-23T04:58:48.291Z,4.20
2018-11-23T05:01:16.892Z,4.20
2018-11-23T05:03:46.405Z,4.30
2018-11-23T05:06:15.125Z,4.30
2018-11-23T05:08:44.001Z,4.30
2018-11-23T05:11:12.562Z,4.30
2018-11-23T05:13:42.148Z,4.30
2018-11-23T05:16:10.616Z,4.00
2018-11-23T05:18:39.124Z,3.70
2018-11-23T05:21:07.626Z,3.70
2018-11-23T05:23:38.059Z,3.60
2018-11-23T05:26:07.610Z,3.30
2018-11-23T05:28:36.819Z,3.10
2018-11-23T05:31:08.465Z,2.90
2018-11-23T05:33:37.613Z,2.80
2018-11-23T05:36:06.250Z,2.80
2018-11-23T05:38:34.884Z,2.80
2018-11-23T05:41:03.502Z,2.70
2018-11-23T05:43:31.986Z,2.70
2018-11-23T05:46:00.592Z,2.80
2018-11-23T05:48:29.301Z,2.80
2018-11-23T05:50:59.152Z,2.90
2018-11-23T05:53:27.806Z,3.00
2018-11-23T05:55:56.289Z,3.00
2018-11-23T05:58:24.831Z,3.10
2018-11-23T06:00:53.302Z,3.00
2018-11-23T06:03:21.853Z,3.10
2018-11-23T06:05:50.299Z,3.10
2018-11-23T06:08:18.865Z,3.10
2018-11-23T06:10:47.340Z,3.20
2018-11-23T06:13:15.854Z,3.30
2018-11-23T06:15:45.738Z,3.30
2018-11-23T06:18:13.006Z,3.40
2018-11-23T06:20:41.480Z,3.40
2018-11-23T06:23:10.021Z,3.50
2018-11-23T06:25:44.111Z,3.70
2018-11-23T06:28:12.653Z,3.90
2018-11-23T06:30:41.209Z,4.10
2018-11-23T06:33:20.953Z,4.20
2018-11-23T06:35:49.550Z,4.10
2018-11-23T06:38:18.129Z,4.00
2018-11-23T06:40:46.691Z,3.90
2018-11-23T06:43:15.331Z,3.80
2018-11-23T06:45:44.623Z,3.60
2018-11-23T06:48:13.188Z,3.50
2018-11-23T06:50:41.727Z,3.40
2018-11-23T06:53:10.362Z,3.30
2018-11-23T06:55:38.959Z,3.30
2018-11-23T06:58:07.474Z,3.40
2018-11-23T07:00:36.054Z,3.50
2018-11-23T07:03:04.731Z,3.60
2018-11-23T07:05:33.337Z,3.80
2018-11-23T07:08:03.652Z,4.10
2018-11-23T07:10:32.170Z,4.30
2018-11-23T07:13:00.717Z,4.40
2018-11-23T07:15:29.238Z,4.50
2018-11-23T07:17:57.926Z,4.60
2018-11-23T07:20:26.453Z,4.60
2018-11-23T07:22:55.032Z,4.50
2018-11-23T07:25:23.575Z,4.40
2018-11-23T07:27:52.204Z,4.40
2018-11-23T07:30:24.231Z,4.40
2018-11-23T07:32:52.850Z,4.30
2018-11-23T07:35:21.415Z,4.30
2018-11-23T07:37:49.905Z,4.30
2018-11-23T07:40:31.362Z,4.40
2018-11-23T07:42:59.867Z,4.40
2018-11-23T07:45:28.867Z,4.60
2018-11-23T07:47:57.425Z,4.60
2018-11-23T07:50:26.015Z,4.70
2018-11-23T07:52:54.517Z,4.80
2018-11-23T07:55:23.072Z,4.90
2018-11-23T07:57:51.789Z,4.90
2018-11-23T08:00:21.891Z,4.80
2018-11-23T08:02:50.565Z,4.80
2018-11-23T08:05:19.952Z,4.90
2018-11-23T08:07:48.500Z,5.00
2018-11-23T08:10:16.371Z,4.90
2018-11-23T08:12:46.596Z,4.90
2018-11-23T08:15:17.596Z,5.00
2018-11-23T08:17:46.180Z,5.10
2018-11-23T08:20:16.248Z,5.20
2018-11-23T08:22:44.985Z,5.20
2018-11-23T08:25:14.810Z,5.20
2018-11-23T08:27:44.134Z,5.10
2018-11-23T08:30:21.756Z,5.00
2018-11-23T08:32:50.306Z,5.00
2018-11-23T08:35:18.839Z,5.00
2018-11-23T08:37:47.416Z,5.00
2018-11-23T08:40:18.859Z,5.20
2018-11-23T08:42:48.336Z,5.40
2018-11-23T08:45:19.267Z,5.50
2018-11-23T08:47:47.811Z,5.60
2018-11-23T08:50:19.734Z,5.80
2018-11-23T08:52:48.398Z,5.80
2018-11-23T08:55:17.822Z,6.00
2018-11-23T08:57:46.380Z,6.10
2018-11-23T09:00:22.849Z,6.20
2018-11-23T09:02:54.142Z,6.30
2018-11-23T09:05:22.776Z,6.40
2018-11-23T09:07:52.504Z,6.50
2018-11-23T09:10:24.472Z,6.60
2018-11-23T09:12:57.819Z,6.60
2018-11-23T09:15:26.349Z,6.70
2018-11-23T09:17:54.959Z,6.70
2018-11-23T09:20:23.615Z,6.70
2018-11-23T09:22:52.179Z,6.80
2018-11-23T09:25:22.318Z,6.90
2018-11-23T09:27:51.215Z,6.90
2018-11-23T09:30:21.047Z,7.00
2018-11-23T09:32:50.465Z,7.00
2018-11-23T09:35:19.232Z,7.00
2018-11-23T09:37:48.662Z,7.10
2018-11-23T09:40:19.099Z,7.10
2018-11-23T09:42:48.005Z,7.20
2018-11-23T09:45:18.931Z,7.20
2018-11-23T09:47:48.467Z,7.20
2018-11-23T09:50:18.826Z,7.20
2018-11-23T09:52:48.515Z,7.30
2018-11-23T09:55:17.395Z,7.30
2018-11-23T09:57:45.957Z,7.40
2018-11-23T10:00:16.927Z,7.30
2018-11-23T10:02:46.227Z,7.40
2018-11-23T10:05:15.939Z,7.40
2018-11-23T10:07:47.272Z,7.50
2018-11-23T10:10:16.800Z,7.60
2018-11-23T10:12:45.417Z,7.70
2018-11-23T10:15:15.580Z,7.60
2018-11-23T10:17:44.161Z,7.80
2018-11-23T10:20:16.247Z,7.80
2018-11-23T10:22:45.224Z,7.60
2018-11-23T10:25:15.296Z,7.60
2018-11-23T10:27:44.377Z,7.60
2018-11-23T10:30:15.748Z,7.90
2018-11-23T10:32:45.053Z,8.00
2018-11-23T10:35:13.754Z,8.10
2018-11-23T10:37:43.152Z,8.20
2018-11-23T10:40:14.155Z,8.30
2018-11-23T10:42:43.017Z,8.30
2018-11-23T10:45:14.547Z,8.30
2018-11-23T10:47:43.175Z,8.40
2018-11-23T10:50:14.857Z,8.50
2018-11-23T10:52:43.480Z,8.50
2018-11-23T10:55:14.446Z,8.70
2018-11-23T10:57:43.163Z,8.40
2018-11-23T11:00:20.012Z,8.50
2018-11-23T11:02:54.155Z,8.70
2018-11-23T11:05:28.020Z,8.90
2018-11-23T11:07:58.086Z,9.10
2018-11-23T11:10:26.696Z,9.20
2018-11-23T11:12:55.298Z,9.30
2018-11-23T11:15:23.901Z,9.40
2018-11-23T11:17:52.490Z,9.40
2018-11-23T11:20:21.270Z,9.40
2018-11-23T11:22:49.903Z,9.50
2018-11-23T11:25:18.459Z,9.50
2018-11-23T11:27:47.004Z,9.50
2018-11-23T11:30:17.797Z,9.50
2018-11-23T11:32:47.038Z,9.60
2018-11-23T11:35:15.623Z,9.70
2018-11-23T11:37:44.578Z,9.70
2018-11-23T11:40:15.571Z,9.70
2018-11-23T11:42:44.393Z,9.80
2018-11-23T11:45:15.269Z,9.80
2018-11-23T11:47:44.320Z,9.80
2018-11-23T11:50:13.366Z,9.90
2018-11-23T11:52:43.121Z,9.90
2018-11-23T11:55:13.823Z,10.00
2018-11-23T11:57:42.923Z,10.00
2018-11-23T12:00:13.534Z,10.00
2018-11-23T12:02:42.248Z,10.00
2018-11-23T12:05:11.999Z,10.00
2018-11-23T12:07:41.055Z,10.00
2018-11-23T12:10:11.978Z,10.00
2018-11-23T12:12:40.478Z,10.00
2018-11-23T12:15:10.340Z,10.00
2018-11-23T12:17:39.111Z,10.00
2018-11-23T12:20:10.127Z,10.00
2018-11-23T12:22:38.833Z,10.10
2018-11-23T12:25:07.499Z,10.10
2018-11-23T12:27:36.152Z,10.10
2018-11-23T12:30:06.986Z,10.00
2018-11-23T12:32:35.708Z,10.00
2018-11-23T12:35:04.528Z,10.10
2018-11-23T12:37:33.067Z,10.00
2018-11-23T12:40:01.626Z,10.00
2018-11-23T12:42:30.129Z,10.00
2018-11-23T12:44:58.730Z,10.00
2018-11-23T12:47:27.341Z,10.10
2018-11-23T12:49:55.919Z,10.20
2018-11-23T12:52:24.467Z,10.20
2018-11-23T12:54:52.964Z,10.20
2018-11-23T12:57:21.585Z,10.20
2018-11-23T12:59:50.099Z,10.20
2018-11-23T13:02:18.701Z,10.20
2018-11-23T13:04:47.251Z,10.20
2018-11-23T13:07:15.799Z,10.20
2018-11-23T13:09:44.377Z,10.20
2018-11-23T13:12:12.947Z,10.10
2018-11-23T13:14:41.499Z,10.10
2018-11-23T13:17:10.437Z,10.10
2018-11-23T13:19:39.133Z,10.10
2018-11-23T13:22:07.872Z,10.10
2018-11-23T13:24:36.437Z,10.10
2018-11-23T13:27:05.091Z,10.10
2018-11-23T13:29:33.899Z,10.10
2018-11-23T13:32:02.551Z,10.10
2018-11-23T13:34:31.183Z,10.10
2018-11-23T13:37:00.145Z,10.10
2018-11-23T13:39:28.930Z,10.10
2018-11-23T13:41:57.573Z,10.10
2018-11-23T13:44:26.195Z,10.10
2018-11-23T13:46:54.943Z,10.10
2018-11-23T13:49:23.912Z,10.00
2018-11-23T13:51:52.649Z,10.00
2018-11-23T13:54:21.222Z,10.00
2018-11-23T13:56:49.958Z,10.10
2018-11-23T13:59:18.638Z,10.00
2018-11-23T14:01:47.216Z,10.10
2018-11-23T14:04:15.841Z,10.00
2018-11-23T14:06:44.478Z,10.00
2018-11-23T14:09:13.242Z,10.00
2018-11-23T14:11:42.149Z,10.00
2018-11-23T14:14:11.320Z,10.00
2018-11-23T14:16:39.894Z,10.00
2018-11-23T14:19:08.628Z,10.00
2018-11-23T14:21:37.183Z,10.00
2018-11-23T14:24:06.166Z,10.00
2018-11-23T14:26:34.677Z,10.00
2018-11-23T14:29:03.337Z,9.90
2018-11-23T14:31:31.843Z,9.90
2018-11-23T14:34:00.527Z,9.90
2018-11-23T14:36:29.076Z,9.90
2018-11-23T14:38:58.015Z,9.90
2018-11-23T14:41:26.579Z,9.80
2018-11-23T14:43:55.225Z,9.80
2018-11-23T14:46:23.837Z,9.80
2018-11-23T14:48:52.424Z,9.80
2018-11-23T14:51:21.044Z,9.70
2018-11-23T14:53:49.616Z,9.70
2018-11-23T14:56:18.191Z,9.60
2018-11-23T14:58:46.821Z,9.60
2018-11-23T15:01:15.419Z,9.60
2018-11-23T15:03:43.935Z,9.60
2018-11-23T15:06:13.089Z,9.60
2018-11-23T15:08:44.085Z,9.50
2018-11-23T15:11:13.901Z,9.50
2018-11-23T15:13:42.976Z,9.50
2018-11-23T15:16:13.576Z,9.40
2018-11-23T15:18:42.251Z,9.40
2018-11-23T15:21:11.380Z,9.30
2018-11-23T15:23:41.084Z,9.20
2018-11-23T15:26:10.251Z,9.20
2018-11-23T15:28:43.155Z,9.10
2018-11-23T15:31:11.866Z,9.10
2018-11-23T15:33:40.834Z,9.00
2018-11-23T15:36:09.839Z,9.00
2018-11-23T15:38:38.832Z,8.90
2018-11-23T15:41:07.478Z,8.90
2018-11-23T15:43:36.018Z,8.90
2018-11-23T15:46:04.922Z,8.90
2018-11-23T15:48:33.604Z,8.80
2018-11-23T15:51:08.530Z,8.80
2018-11-23T15:53:37.379Z,8.80
2018-11-23T15:56:06.172Z,8.80
2018-11-23T15:58:34.793Z,8.70
2018-11-23T16:01:03.634Z,8.70
2018-11-23T16:03:32.269Z,8.60
2018-11-23T16:06:01.131Z,8.60
2018-11-23T16:08:30.115Z,8.60
2018-11-23T16:10:58.814Z,8.50
2018-11-23T16:13:27.992Z,8.40
2018-11-23T16:15:56.596Z,8.30
2018-11-23T16:18:25.199Z,8.30
2018-11-23T16:20:53.877Z,8.20
2018-11-23T16:23:22.575Z,8.10
2018-11-23T16:25:51.922Z,8.10
2018-11-23T16:28:20.501Z,8.00
2018-11-23T16:30:50.216Z,7.90
2018-11-23T16:33:20.530Z,7.90
2018-11-23T16:35:49.760Z,7.80
2018-11-23T16:38:19.861Z,7.80
2018-11-23T16:40:50.218Z,7.80
2018-11-23T16:43:18.882Z,7.80
2018-11-23T16:45:47.872Z,7.80
2018-11-23T16:48:17.085Z,7.80
2018-11-23T16:50:46.101Z,7.70
2018-11-23T16:53:14.683Z,7.60
2018-11-23T16:55:43.292Z,7.60
2018-11-23T16:58:12.852Z,7.50
2018-11-23T17:00:43.163Z,7.50
2018-11-23T17:03:14.075Z,7.40
2018-11-23T17:05:47.187Z,7.40
2018-11-23T17:08:15.753Z,7.40
2018-11-23T17:10:44.313Z,7.40
2018-11-23T17:13:12.823Z,7.40
2018-11-23T17:15:41.496Z,7.40
2018-11-23T17:18:10.411Z,7.40
2018-11-23T17:20:39.513Z,7.40
2018-11-23T17:23:09.388Z,7.30
2018-11-23T17:25:37.913Z,7.30
2018-11-23T17:28:07.743Z,7.30
2018-11-23T17:30:37.094Z,7.30
2018-11-23T17:33:05.943Z,7.30
2018-11-23T17:35:34.530Z,7.30
2018-11-23T17:38:03.161Z,7.30
2018-11-23T17:40:33.476Z,7.30
2018-11-23T17:43:01.932Z,7.20
2018-11-23T17:45:31.911Z,7.20
2018-11-23T17:48:00.719Z,7.20
2018-11-23T17:50:30.947Z,7.10
2018-11-23T17:52:59.942Z,7.10
2018-11-23T17:55:28.647Z,7.10
2018-11-23T17:57:57.744Z,7.00
2018-11-23T18:00:28.787Z,7.00
2018-11-23T18:02:58.239Z,6.90
2018-11-23T18:05:27.692Z,6.90
2018-11-23T18:07:56.357Z,6.90
2018-11-23T18:10:27.569Z,6.90
2018-11-23T18:12:57.090Z,6.80
2018-11-23T18:15:26.951Z,6.80
2018-11-23T18:17:57.134Z,6.80
2018-11-23T18:20:27.516Z,6.80
2018-11-23T18:22:57.514Z,6.70
2018-11-23T18:25:29.797Z,6.70
2018-11-23T18:28:00.563Z,6.60
2018-11-23T18:30:32.689Z,6.60
2018-11-23T18:33:03.616Z,6.60
2018-11-23T18:35:56.243Z,6.50
2018-11-23T18:38:44.240Z,6.50
2018-11-23T18:41:20.342Z,6.40
2018-11-23T18:43:49.622Z,6.40
2018-11-23T18:46:18.322Z,6.40
2018-11-23T18:48:47.001Z,6.40
2018-11-23T18:51:15.691Z,6.40
2018-11-23T18:53:44.384Z,6.40
2018-11-23T18:56:14.098Z,6.40
2018-11-23T18:58:43.190Z,6.30
2018-11-23T19:01:19.154Z,6.30
2018-11-23T19:03:48.287Z,6.30
2018-11-23T19:06:17.515Z,6.30
2018-11-23T19:08:46.435Z,6.30
2018-11-23T19:11:15.512Z,6.20
2018-11-23T19:13:46.327Z,6.20
2018-11-23T19:16:15.426Z,6.20
2018-11-23T19:18:44.697Z,6.20
2018-11-23T19:21:14.433Z,6.20
2018-11-23T19:23:43.407Z,6.20
2018-11-23T19:26:14.250Z,6.10
2018-11-23T19:28:44.013Z,6.20
2018-11-23T19:31:17.946Z,6.20
2018-11-23T19:33:47.318Z,6.20
2018-11-23T19:36:18.546Z,6.10
2018-11-23T19:38:47.456Z,6.10
2018-11-23T19:41:16.503Z,6.10
2018-11-23T19:43:46.093Z,6.10
2018-11-23T19:46:46.154Z,6.10
2018-11-23T19:49:19.476Z,6.10
2018-11-23T19:51:49.239Z,6.10
2018-11-23T19:54:18.796Z,6.10
2018-11-23T19:56:47.619Z,6.10
2018-11-23T19:59:17.716Z,6.10
2018-11-23T20:01:54.629Z,6.10
2018-11-23T20:04:28.079Z,6.10
2018-11-23T20:06:57.043Z,6.10
2018-11-23T20:09:27.597Z,6.10
2018-11-23T20:11:57.949Z,6.20
2018-11-23T20:14:35.573Z,6.20
2018-11-23T20:17:09.067Z,6.20
2018-11-23T20:19:40.117Z,6.20
2018-11-23T20:22:08.923Z,6.20
2018-11-23T20:24:38.563Z,6.20
2018-11-23T20:27:07.919Z,6.20
2018-11-23T20:29:36.552Z,6.10
2018-11-23T20:32:05.343Z,6.10
2018-11-23T20:34:34.289Z,6.10
2018-11-23T20:37:03.084Z,6.20
2018-11-23T20:39:31.701Z,6.20
2018-11-23T20:42:00.381Z,6.20
2018-11-23T20:44:29.116Z,6.20
2018-11-23T20:46:57.816Z,6.20
2018-11-23T20:49:26.814Z,6.20
2018-11-23T20:51:55.541Z,6.20
2018-11-23T20:54:24.265Z,6.20
2018-11-23T20:56:52.853Z,6.20
2018-11-23T20:59:21.494Z,6.20
2018-11-23T21:01:50.124Z,6.20
2018-11-23T21:04:18.911Z,6.10
2018-11-23T21:06:47.607Z,6.20
2018-11-23T21:09:16.388Z,6.10
2018-11-23T21:11:45.215Z,6.10
2018-11-23T21:14:14.232Z,6.10
2018-11-23T21:16:43.048Z,6.10
2018-11-23T21:19:11.758Z,6.10
2018-11-23T21:21:40.930Z,6.10
2018-11-23T21:24:09.810Z,6.10
2018-11-23T21:26:38.718Z,6.00
2018-11-23T21:29:07.593Z,6.00
2018-11-23T21:31:36.460Z,5.90
2018-11-23T21:34:05.700Z,5.90
2018-11-23T21:36:34.600Z,5.90
2018-11-23T21:39:03.917Z,5.90
2018-11-23T21:41:32.731Z,5.90
2018-11-23T21:44:01.295Z,5.90
2018-11-23T21:46:29.825Z,5.90
2018-11-23T21:48:58.495Z,5.90
2018-11-23T21:51:27.134Z,5.90
2018-11-23T21:53:55.837Z,5.90
2018-11-23T21:56:24.347Z,6.00
2018-11-23T21:58:52.935Z,6.00
2018-11-23T22:01:21.494Z,6.00
2018-11-23T22:03:50.068Z,5.90
2018-11-23T22:06:18.659Z,5.90
2018-11-23T22:08:47.475Z,5.90
2018-11-23T22:11:15.976Z,5.90
2018-11-23T22:13:44.530Z,5.90
2018-11-23T22:16:13.176Z,5.90
2018-11-23T22:18:42.033Z,5.90
2018-11-23T22:21:10.667Z,5.80
2018-11-23T22:23:39.275Z,5.80
2018-11-23T22:26:08.264Z,5.80
2018-11-23T22:28:36.851Z,5.90
2018-11-23T22:31:05.581Z,5.90
2018-11-23T22:33:34.104Z,5.90
2018-11-23T22:36:02.590Z,6.00
2018-11-23T22:38:31.191Z,5.90
2018-11-23T22:41:00.349Z,6.00
2018-11-23T22:43:28.873Z,6.00
2018-11-23T22:45:57.511Z,5.90
2018-11-23T22:48:26.345Z,5.80
2018-11-23T22:50:54.913Z,5.70
2018-11-23T22:53:23.503Z,5.70
2018-11-23T22:55:52.141Z,5.70
2018-11-23T22:58:20.993Z,5.70
2018-11-23T23:00:49.657Z,5.70
2018-11-23T23:03:18.230Z,5.60
2018-11-23T23:05:46.754Z,5.60
2018-11-23T23:08:15.376Z,5.60
2018-11-23T23:10:44.085Z,5.60
2018-11-23T23:13:12.779Z,5.70
2018-11-23T23:15:41.359Z,5.80
2018-11-23T23:18:09.955Z,5.80
2018-11-23T23:20:38.452Z,5.90
2018-11-23T23:23:07.033Z,5.90
2018-11-23T23:25:35.527Z,6.00
2018-11-23T23:28:04.329Z,6.00
2018-11-23T23:30:32.883Z,6.00
2018-11-23T23:33:01.471Z,6.10
2018-11-23T23:35:30.074Z,6.10
2018-11-23T23:37:58.575Z,6.10
2018-11-23T23:40:27.184Z,6.10
2018-11-23T23:42:55.791Z,6.10
2018-11-23T23:45:24.422Z,6.10
2018-11-23T23:47:52.939Z,6.00
2018-11-23T23:50:22.028Z,6.10
2018-11-23T23:52:51.057Z,6.00
2018-11-23T23:55:19.621Z,6.00
2018-11-23T23:57:48.513Z,6.10
